ADDS METAR Data INFO
IDs: Format: Raw Decoded Include TAF

Data at: 0936 UTC 25 Jun 2018

KLBL 250856Z AUTO 30012KT 10SM CLR 15/13 A3000 RMK AO2 SLP134 60000 T01500133 50016
KLBL 250756Z AUTO 26007KT 10SM CLR 16/14 A3001 RMK AO2 WSHFT 0649 SLP137 T01560139
KLBL 250709Z AUTO 24012KT 10SM FEW024 17/13 A3003 RMK AO2 WSHFT 0649
KLBL 250656Z AUTO 26010G28KT 10SM FEW015 BKN110 16/14 A3001 RMK AO2 PK WND 27028/0651 TSE0559RAE34 SLP137 P0000 T01610139
KLBL 250605Z AUTO 10014KT 10SM -RA BKN090 OVC110 16/14 A2992 RMK AO2 LTG DSNT NE-S TSE0559 PRESFR P0000
KLBL 250556Z AUTO 09020G25KT 10SM VCTS -RA OVC095 16/14 A2995 RMK AO2 LTG DSNT ALQDS TSE09B14 PRESFR SLP120 P0007 60051 T01560139 10272 20139 402830139 50003
KLBL 250514Z AUTO 04013KT 10SM VCTS -RA FEW050 OVC070 16/14 A3003 RMK AO2 LTG DSNT ALQDS TSE09B14 P0003
KLBL 250456Z AUTO 02017G20KT 10SM -TSRA BKN070 OVC090 16/14 A3001 RMK AO2 PK WND 02033/0401 LTG DSNT ALQDS TSE39B41 SLP143 P0006 T01560139
KLBL 250441Z AUTO 02015KT 10SM -TSRA FEW060 OVC090 15/13 A3002 RMK AO2 PK WND 02033/0401 LTG DSNT ALQDS TSE39B41 P0004
KLBL 250329Z AUTO 01030G36KT 10SM VCTS -RA SCT015 BKN085 OVC110 14/13 A2998 RMK AO2 PK WND 02041/0301 LTG DSNT ALQDS TSE24B29 P0002
KLBL 250256Z AUTO 02033G40KT 10SM +TSRA FEW011 SCT034 OVC065 14/13 A2994 RMK AO2 PK WND 33059/0224 WSHFT 0208 LTG DSNT ALQDS TSB16RAB18 SLP123 P0033 60033 T01390128 51027
KLBL 250228Z AUTO 34040G59KT 3SM +TSRA BR FEW008 BKN027 OVC040 16/14 A2994 RMK AO2 PK WND 33059/0224 WSHFT 0208 LTG DSNT ALQDS TSB16RAB18 PRESRR P0019
KLBL 250222Z AUTO 34037G49KT 9SM VCTS -RA FEW018 OVC040 19/14 A2988 RMK AO2 PK WND 34049/0222 WSHFT 0208 LTG DSNT ALQDS TSB16RAB18 P0000
KLBL 250156Z AUTO 06012KT 10SM SCT040 BKN050 OVC060 24/17 A2992 RMK AO2 LTG DSNT SW-NW SLP105 T02440172
KLBL 250056Z AUTO 09008KT 10SM CLR 26/17 A2988 RMK AO2 SLP090 T02610167
KLBL 242356Z AUTO 13008KT 10SM CLR 27/17 A2985 RMK AO2 SLP080 T02720172 10283 20222 56013
KLBL 242256Z AUTO 13013KT 10SM CLR 27/17 A2985 RMK AO2 SLP080 T02720167
KLBL 242156Z AUTO 14011KT 10SM CLR 28/16 A2988 RMK AO2 SLP088 T02780161
KLBL 242056Z AUTO 14014G20KT 10SM CLR 27/16 A2989 RMK AO2 SLP094 T02670161 58012
KLBL 241956Z AUTO 15018G22KT 10SM CLR 26/16 A2991 RMK AO2 SLP101 T02560161
KLBL 241856Z AUTO 12017G24KT 10SM FEW065 24/17 A2992 RMK AO2 PK WND 13026/1837 SLP105 T02440167
KLBL 241756Z AUTO 12018G23KT 8SM SCT017 BKN070 22/17 A2993 RMK AO2 PK WND 09030/1659 SLP111 60012 T02220172 10222 20156 53001
KLBL 241656Z AUTO 10021G26KT 10SM BKN055 OVC070 19/16 A2992 RMK AO2 PK WND 10027/1642 SLP110 T01940161
KLBL 241556Z AUTO 10018G26KT 10SM OVC050 19/16 A2992 RMK AO2 PK WND 11026/1553 SLP103 T01890156
KLBL 241456Z AUTO 09019G26KT 10SM SCT055 BKN095 17/15 A2993 RMK AO2 PK WND 04028/1359 LTG DSNT E AND SE TSE26RAE41 SLP108 P0002 60012 T01720150 58002
KLBL 241432Z AUTO 08017G24KT 10SM -RA FEW022 SCT070 SCT090 17/16 A2993 RMK AO2 PK WND 04028/1359 LTG DSNT NE-SE TSE26 P0002
KLBL 241356Z AUTO 04018G25KT 6SM TSRA BR FEW043 OVC055 16/15 A2996 RMK AO2 PK WND 03037/1317 LTG DSNT NE-S TSB27RAB00 SLP119 P0010 T01610150
KLBL 241333Z AUTO 01020G25KT 10SM -TSRA SCT035 BKN041 OVC048 16/14 A2999 RMK AO2 PK WND 03037/1317 LTG DSNT E AND NW TSB27RAB00 P0001
KLBL 241315Z AUTO 03026G31KT 10SM -RA FEW025 OVC035 17/14 A2993 RMK AO2 PK WND 03033/1300 LTG DSNT NW-E RAB00 P0000
KLBL 241256Z AUTO 01025G32KT 10SM SCT018 BKN026 OVC041 18/15 A2993 RMK AO2 PK WND 01032/1254 LTG DSNT N AND NE SLP105 T01780150
KLBL 241252Z AUTO 36022KT 10SM SCT016 BKN024 OVC041 18/15 A2993 RMK AO2 PK WND 01027/1249 LTG DSNT N AND NE
KLBL 241156Z AUTO 14005KT 10SM CLR 17/15 A2978 RMK AO2 SLP054 T01670150 10183 20167 55017
KLBL 241056Z AUTO 12010KT 10SM CLR 17/15 A2978 RMK AO2 SLP053 T01720150
KLBL 240956Z AUTO 12011KT 10SM SCT041 17/16 A2980 RMK AO2 SLP061 T01720156
KLBL 240856Z AUTO 11012KT 10SM SCT035 18/15 A2984 RMK AO2 SLP072 T01780150 55004
KLBL 240756Z AUTO 12011KT 10SM OVC038 18/14 A2983 RMK AO2 SLP071 T01780144
KLBL 240656Z AUTO 09012KT 10SM CLR 18/14 A2981 RMK AO2 PRESFR SLP064 T01780139
KLBL 240556Z AUTO 08014KT 10SM CLR 18/14 A2985 RMK AO2 PK WND 03026/0457 LTG DSNT SE RAE31 SLP078 P0000 60000 T01780144 10289 20172 402940156 50020
KLBL 240456Z AUTO 04022G28KT 10SM -RA BKN033 OVC042 18/14 A2993 RMK AO2 PK WND 01040/0414 WSHFT 0352 LTG DSNT N AND NE RAB40 SLP107 P0000 T01830144
KLBL 240441Z AUTO 03027G34KT 10SM -RA OVC031 19/14 A2992 RMK AO2 PK WND 01040/0414 WSHFT 0352 LTG DSNT W-NE RAB40 P0000
KLBL 240431Z AUTO 02024G31KT 10SM BKN029 OVC040 19/15 A2991 RMK AO2 PK WND 01040/0414 WSHFT 0352 LTG DSNT W-NE
KLBL 240412Z AUTO 02032G38KT 10SM BKN042 20/15 A2991 RMK AO2 PK WND 01038/0409 WSHFT 0352 LTG DSNT N PRESRR
KLBL 240356Z AUTO 03014KT 10SM CLR 25/19 A2986 RMK AO2 LTG DSNT N PRESRR SLP080 T02500194
KLBL 240256Z AUTO 14010KT 10SM CLR 24/19 A2979 RMK AO2 SLP056 T02440194 58002
KLBL 240156Z AUTO 15011KT 10SM CLR 26/19 A2981 RMK AO2 SLP063 T02610189
KLBL 240056Z AUTO 14014KT 10SM CLR 28/19 A2978 RMK AO2 SLP053 T02780189
KLBL 232356Z AUTO 16016G20KT 10SM FEW040 29/19 A2979 RMK AO2 SLP059 T02890194 10294 20261 58024
KLBL 232256Z AUTO 15016G23KT 10SM FEW040 29/19 A2982 RMK AO2 SLP066 T02890189
KLBL 232156Z AUTO 17014G21KT 10SM FEW044 29/19 A2985 RMK AO2 SLP077 T02890189